Cisco Butte, California Weather observations

Data are for observation ending at time listed.
 Day   Time    Ave.   Ave.  Ave.  Vector   Max.   Stn.    Total    Solar   Ave.   Snow 
  of    of     Air    Rel.  Wind   Wind    Wind   Baro.  Precip.   Rad.    Soil   Depth
Year   Day     Temp.  Hum.  Speed  Dir.    Gust   Pres.                    Temp.       
2015   (PST)    F      %     mph   deg.    mph     mb.     in.     W/m2     F      in. 
---------------------------------------------------------------------------------------  
 240   14:50   72.4    26   17.4   274     27.7   826.0    0.00     427    999.0  159.0
 240   15:00   73.5    25   14.2   268     25.6   826.0    0.00     388    999.0  159.0
 240   15:10   72.6    25   17.5   274     26.3   826.0    0.00     283    999.0  159.0
 240   15:20   72.9    25   11.3   262     19.5   826.0    0.00     362    999.0  159.0
 240   15:30   73.8    24   16.8   272     24.8   826.0    0.00     372    999.0  159.0
 240   15:40   73.5    24   13.5   263     25.6   826.0    0.00     333    999.0  159.0
 240   15:50   73.6    24   13.8   264     24.7   826.0    0.00     339    999.0  159.0
 240   16:00   72.7    24   17.1   263     26.8   826.0    0.00     314    999.0  159.0
 240   16:10   72.9    24   16.5   269     30.1   826.0    0.00     337    999.0  159.0
 240   16:20   72.7    24   15.5   267     24.8   826.0    0.00     216    999.0  159.0
 240   16:30   73.3    23   12.0   255     25.5   826.0    0.00      92    999.0  159.0
 240   16:40   72.7    24   15.7   265     25.2   826.0    0.00     228    999.0  159.0
 240   16:50   72.0    24   16.5   267     25.4   825.0    0.00     195    999.0  159.0
 240   17:00   71.5    25   16.3   266     27.0   825.0    0.00     171    999.0  159.1
 240   17:10   71.5    25   12.8   265     26.6   825.0    0.00     149    999.0  159.1
 240   17:20   71.4    25   12.5   257     22.9   825.0    0.00     120    999.0  159.1
 240   17:30   70.9    27   14.0   267     21.9   825.0    0.00     105    999.0  159.1
 240   17:40   70.6    28   13.9   264     21.9   825.0    0.00      86    999.0  159.1
 240   17:50   70.2    28   11.5   263     20.0   825.0    0.00      65    999.0  159.1
 240   18:00   69.6    29   11.1   273     20.2   825.0    0.00      35    999.0  159.1
 240   18:10   69.0    29   13.6   266     21.6   825.0    0.00      10    999.0  159.1
 240   18:20   67.7    30   10.2   256     20.0   825.0    0.00       7    999.0  159.1
 240   18:30   66.8    32    7.0   267     11.6   825.0    0.00       6    999.0  159.1
 240   18:40   65.8    34    9.0   276     13.9   825.0    0.00       4    999.0  159.1
 240   18:50   65.1    34    7.6   272     12.1   825.0    0.00       2    999.0  159.1
 240   19:00   64.5    35    6.8   275      9.9   825.0    0.00       0    999.0  159.1
 240   19:10   64.0    36    6.5   274      9.7   825.0    0.00       0    999.0  159.1
 240   19:20   63.6    36    5.0   265      8.7   825.0    0.00       0    999.0  159.1
 240   19:30   63.3    37    6.9   269     11.7   826.0    0.00       0    999.0  158.8
 240   19:40   63.0    37    3.9   265      6.9   826.0    0.00       0    999.0  158.8
 240   19:50   62.7    38    4.4   254      8.3   826.0    0.00       0    999.0  158.6
 240   20:00   62.6    40    4.2   264      8.4   826.0    0.00       0    999.0  158.7
 240   20:10   62.3    40    4.7   266      8.3   826.0    0.00       0    999.0  158.8
 240   20:20   62.1    41    1.7   230      3.4   826.0    0.00       0    999.0  159.0
 240   20:30   61.9    41    2.7   247      5.5   826.0    0.00       0    999.0  159.1
 240   20:40   61.3    42    4.2   267      9.0   826.0    0.00       0    999.0  159.1
 240   20:50   61.1    42    5.2   273      9.3   826.0    0.00       0    999.0  159.1
 240   21:00   61.4    42    2.7   244      7.6   826.0    0.00       0    999.0  159.1
 240   21:10   61.2    42    2.3   256      5.5   826.0    0.00       0    999.0  159.1
 240   21:20   61.1    42    1.4   231      5.0   826.0    0.00       0    999.0  159.1
 240   21:30   60.9    43    2.9   247     11.9   826.0    0.00       0    999.0  159.1
 240   21:40   60.7    44    1.9   162      6.6   826.0    0.00       0    999.0  159.1
 240   21:50   60.7    44    2.6   152      6.7   826.0    0.00       0    999.0  159.1
 240   22:00   60.7    44    2.8   180      5.4   825.0    0.00       0    999.0  159.1
 240   22:10   60.8    44    3.5   196     11.5   825.0    0.00       0    999.0  159.1
 240   22:20   60.7    44    3.7   181      7.2   825.0    0.00       0    999.0  159.1
 240   22:30   60.6    44    2.8   181      9.0   826.0    0.00       0    999.0  159.1
 240   22:40   60.4    44    2.9   198     10.9   826.0    0.00       0    999.0  158.9
 240   22:50   60.5    44    2.3   207      6.6   826.0    0.00       0    999.0  158.7
 240   23:00   60.6    45    3.8   205      9.8   826.0    0.00       0    999.0  158.4
 240   23:10   60.5    44    5.8   231     17.2   826.0    0.00       0    999.0  158.6
 240   23:20   60.4    45    2.4   233     11.8   826.0    0.00       0    999.0  158.9
 240   23:30   60.0    45    2.9   253      7.2   825.0    0.00       0    999.0  158.9
 240   23:40   59.9    45    2.6   279      8.3   825.0    0.00       0    999.0  159.0
 240   23:50   59.8    44    4.0   272      7.6   825.0    0.00       0    999.0  159.0
 241    0:00   59.7    44    4.2   263      7.7   825.0    0.00       0    999.0  159.0
 241    0:10   59.7    44    4.3   246     10.0   825.0    0.00       0    999.0  159.1
 241    0:20   59.5    44    2.9   220      8.3   825.0    0.00       0    999.0  159.1
 241    0:30   59.4    45    2.5   198      9.0   825.0    0.00       0    999.0  158.9
 241    0:40   59.2    46    2.6   206     11.7   825.0    0.00       0    999.0  158.8
 241    0:50   59.2    46    4.4   191      9.3   825.0    0.00       0    999.0  158.8
 241    1:00   59.1    47    2.4   174      7.4   825.0    0.00       0    999.0  158.5
 241    1:10   59.2    46    5.6   163     14.5   825.0    0.00       0    999.0  158.6
 241    1:20   59.6    45    5.8   199     16.1   825.0    0.00       0    999.0  158.8
 241    1:30   59.4    45    5.5   198     14.1   825.0    0.00       0    999.0  158.8
 241    1:40   59.3    46    6.1   198     13.1   825.0    0.00       0    999.0  158.8
 241    1:50   58.7    46    4.4   215     10.2   825.0    0.00       0    999.0  158.8
 241    2:00   58.7    46    6.0   194     13.2   825.0    0.00       0    999.0  159.0
 241    2:10   58.6    46    5.8   195     13.1   825.0    0.00       0    999.0  159.2
 241    2:20   58.3    46    3.4   201      9.9   825.0    0.00       0    999.0  159.2
 241    2:30   58.2    46    4.9   196     12.4   824.0    0.00       0    999.0  159.1
 241    2:40   58.2    46    7.5   197     19.8   825.0    0.00       0    999.0  159.1
 241    2:50   58.2    46    8.4   183     21.5   825.0    0.00       0    999.0  159.0
 241    3:00   58.2    46    6.5   182     12.6   824.0    0.00       0    999.0  159.1
 241    3:10   58.0    46    6.7   196     18.9   824.0    0.00       0    999.0  159.1
 241    3:20   57.8    47    7.4   207     18.2   824.0    0.00       0    999.0  159.0
 241    3:30   57.6    47    7.0   198     16.5   825.0    0.00       0    999.0  159.0
 241    3:40   57.0    48    6.9   258     17.1   825.0    0.00       0    999.0  158.9
 241    3:50   56.4    50    6.8   262     15.2   825.0    0.00       0    999.0  159.0
 241    4:00   55.6    51    5.0   249     12.0   825.0    0.00       0    999.0  158.8
 241    4:10   55.7    52    6.9   248     17.2   825.0    0.00       0    999.0  158.9
 241    4:20   55.6    53    7.8   266     13.3   825.0    0.00       0    999.0  158.9
 241    4:30   55.5    54    7.3   269     13.2   824.0    0.00       0    999.0  158.9
 241    4:40   55.2    54    8.3   255     15.4   825.0    0.00       0    999.0  158.9
 241    4:50   55.0    54    9.0   260     16.4   824.0    0.00       0    999.0  158.8
 241    5:00   54.7    55    9.6   265     16.4   825.0    0.00       0    999.0  158.8
 241    5:10   54.4    55    9.3   266     17.2   825.0    0.00       0    999.0  158.8
 241    5:20   54.0    56   10.9   262     19.6   825.0    0.00       0    999.0  158.7
 241    5:30   53.7    56   13.5   266     20.8   825.0    0.00       1    999.0  158.7
 241    5:40   53.6    55   10.4   263     17.4   825.0    0.00       1    999.0  158.5
 241    5:50   53.5    55   12.0   270     22.8   825.0    0.00       3    999.0  158.9
 241    6:00   53.2    54   12.1   272     18.7   825.0    0.00       6    999.0  158.9
 241    6:10   53.3    54   12.3   265     22.1   825.0    0.00       9    999.0  158.9
 241    6:20   53.3    55   11.8   268     19.9   825.0    0.00      12    999.0  158.6
 241    6:30   53.2    56   13.6   266     22.1   825.0    0.00      16    999.0  158.4
 241    6:40   53.8    57   11.1   266     18.3   825.0    0.00      48    999.0  158.5
 241    6:50   54.7    55    9.4   260     23.5   825.0    0.00      55    999.0  158.6
 241    7:00   55.1    55    7.8   240     21.9   825.0    0.00      76    999.0  158.6
 241    7:10   55.1    55   10.6   262     19.2   825.0    0.00      43    999.0  158.7
 241    7:20   55.2    56    8.2   260     15.4   825.0    0.00      58    999.0  158.8
 241    7:30   55.5    56    8.9   262     19.4   825.0    0.00      63    999.0  158.7
 241    7:40   56.0    55    8.4   250     20.6   825.0    0.00     130    999.0  158.7
 241    7:50   56.6    54    9.3   254     17.5   825.0    0.00     193    999.0  158.8
 241    8:00   57.7    53    6.9   240     15.7   825.0    0.00     232    999.0  158.9
 241    8:10   58.7    51    7.7   242     20.6   825.0    0.00     284    999.0  159.0
 241    8:20   59.2    50   10.8   254     23.7   825.0    0.00     317    999.0  159.1
 241    8:30   58.5    51    9.7   241     17.5   825.0    0.00     309    999.0  159.1
 241    8:40   57.8    52   10.3   258     22.0   825.0    0.00     285    999.0  159.0
 241    8:50   58.7    51    8.2   250     19.3   825.0    0.00     408    999.0  159.0
 241    9:00   59.8    49   12.6   261     21.3   825.0    0.00     443    999.0  159.1
 241    9:10   59.2    49   10.4   257     21.7   825.0    0.00     374    999.0  159.1
 241    9:20   58.7    50   11.9   264     23.7   825.0    0.00     354    999.0  159.1
 241    9:30   58.4    51   10.5   256     21.9   826.0    0.00     225    999.0  159.1
 241    9:40   57.5    52   10.5   255     21.2   826.0    0.00     191    999.0  159.0
 241    9:50   57.3    53    9.5   259     19.4   826.0    0.00     165    999.0  158.8
 241   10:00   57.3    54    9.7   258     17.8   826.0    0.00     251    999.0  158.6
 241   10:10   57.5    53   11.0   253     25.1   826.0    0.00     308    999.0  158.4
 241   10:20   59.0    51    9.0   258     17.6   826.0    0.00     505    999.0  158.3
 241   10:30   60.1    50    8.9   269     18.4   826.0    0.00     430    999.0  158.3
 241   10:40   59.8    50   11.2   267     21.9   826.0    0.00     352    999.0  158.4
 241   10:50   59.1    52   11.4   256     25.2   826.0    0.00     494    999.0  158.5
 241   11:00   60.0    50   11.1   245     26.9   826.0    0.00     445    999.0  158.4
 241   11:10   60.4    50    8.3   235     19.4   826.0    0.00     480    999.0  109.8
 241   11:20   60.4    49   16.3   269     31.3   826.0    0.00     595    999.0  157.6
 241   11:30   61.1    48   11.6   262     24.0   826.0    0.00     565    999.0  158.2
 241   11:40   61.8    47   11.6   241     21.0   826.0    0.00     584    999.0  126.5
 241   11:50   62.6    45    9.3   236     24.6   826.0    0.00     597    999.0  125.8
 241   12:00   62.9    44   10.6   226     24.3   826.0    0.00     550    999.0  143.8
 241   12:10   62.3    44    9.8   226     19.6   826.0    0.00     571    999.0  158.9
 241   12:20   62.7    45    9.5   244     19.6   826.0    0.00     566    999.0  159.0
 241   12:30   63.6    42   15.5   264     27.2   826.0    0.00     563    999.0  158.9
 241   12:40   62.5    43   17.1   265     29.1   826.0    0.00     575    999.0  158.9
 241   12:50   63.4    42   18.6   268     29.7   826.0    0.00     600    999.0  142.2
 241   13:00   63.4    42   15.4   268     27.8   826.0    0.00     580    999.0  143.8
 241   13:10   63.6    42   17.3   266     31.6   826.0    0.00     569    999.0  143.0
 241   13:20   62.6    43   19.5   266     35.2   826.0    0.00     565    999.0   63.3
 241   13:30   63.6    42   16.3   268     30.2   826.0    0.00     500    999.0  126.2
 241   13:40   63.3    43   17.8   260     31.9   826.0    0.00     573    999.0   80.0
 241   13:50   62.9    44   16.8   269     27.4   826.0    0.00     461    999.0   46.6
 241   14:00   64.1    43   12.0   257     26.8   826.0    0.00     492    999.0  112.1
 241   14:10   64.0    43   18.8   261     29.8   825.0    0.00     427    999.0  159.0
 241   14:20   63.8    43   18.1   266     36.0   825.0    0.00     468    999.0  159.0
 241   14:30   63.7    45   19.7   265     32.7   825.0    0.00     477    999.0   95.1
 241   14:40   63.0    48   19.1   265     33.5   825.0    0.00     430    999.0  158.4

Return to Cisco Butte graphs page.


Western Regional Climate Center,wrcc@dri.edu